Terminal Aerodrome Forecast
Issued by NWS

Home | Current Version | Previous Version | Text Only | Print | Product List | Glossary On
Versions: 1 2 3 4 5 6 7 8 9 10 11 12 13
964
FTUS45 KVEF 301729
TAFDAG
TAF
KDAG 301729Z 3018/3118 26036G48KT P6SM SCT250
     FM302100 26040G50KT P6SM FEW250
     FM310300 30020G30KT P6SM SCT090
     FM310800 26014G22KT P6SM SCT090=

USA.gov is the U.S. government's official web portal to all federal, state and local government web resources and services.